createdAt,value
2022-08-14T00:02:22.580Z,38.70
2022-08-14T00:04:57.560Z,37.60
2022-08-14T00:07:46.311Z,38.78
2022-08-14T00:10:51.863Z,39.17
2022-08-14T00:13:35.495Z,40.45
2022-08-14T00:16:08.609Z,40.75
2022-08-14T00:19:21.406Z,37.38
2022-08-14T00:22:01.767Z,39.90
2022-08-14T00:24:41.499Z,40.22
2022-08-14T00:27:21.586Z,38.03
2022-08-14T00:30:01.518Z,37.33
2022-08-14T00:32:52.858Z,36.75
2022-08-14T00:36:39.182Z,39.20
2022-08-14T00:38:43.504Z,38.65
2022-08-14T00:41:45.511Z,37.28
2022-08-14T00:44:33.348Z,34.80
2022-08-14T00:47:10.927Z,38.30
2022-08-14T00:50:00.523Z,39.63
2022-08-14T00:52:33.579Z,40.58
2022-08-14T00:55:20.528Z,39.88
2022-08-14T00:58:13.172Z,40.55
2022-08-14T01:01:07.578Z,38.65
2022-08-14T01:04:01.527Z,37.78
2022-08-14T01:06:55.236Z,37.80
2022-08-14T01:09:28.611Z,39.67
2022-08-14T01:12:26.717Z,40.25
2022-08-14T01:15:14.640Z,38.10
2022-08-14T01:18:27.524Z,36.70
2022-08-14T01:21:19.530Z,37.97
2022-08-14T01:23:57.611Z,37.85
2022-08-14T01:26:50.600Z,36.97
2022-08-14T01:29:51.222Z,36.40
2022-08-14T01:32:51.083Z,36.72
2022-08-14T01:36:04.012Z,36.10
2022-08-14T01:38:40.539Z,36.95
2022-08-14T01:41:23.104Z,36.50
2022-08-14T01:44:33.157Z,37.08
2022-08-14T01:47:21.983Z,37.63
2022-08-14T01:50:10.172Z,38.00
2022-08-14T01:52:59.040Z,39.22
2022-08-14T01:55:40.479Z,38.20
2022-08-14T01:58:29.008Z,39.67
2022-08-14T02:01:05.236Z,40.05
2022-08-14T02:03:57.135Z,40.08
2022-08-14T02:06:33.208Z,38.78
2022-08-14T02:09:22.502Z,38.80
2022-08-14T02:11:57.738Z,37.75
2022-08-14T02:14:59.060Z,36.72
2022-08-14T02:17:36.713Z,39.35
2022-08-14T02:20:26.567Z,38.10
2022-08-14T02:22:59.638Z,40.75
2022-08-14T02:25:54.576Z,39.60
2022-08-14T02:28:56.774Z,40.97
2022-08-14T02:31:43.642Z,40.88
2022-08-14T02:34:32.682Z,41.08
2022-08-14T02:37:23.564Z,40.13
2022-08-14T02:40:16.681Z,39.28
2022-08-14T02:43:05.481Z,40.92
2022-08-14T02:45:44.663Z,40.45
2022-08-14T02:49:01.761Z,40.88
2022-08-14T02:51:34.714Z,40.60
2022-08-14T02:54:23.592Z,39.85
2022-08-14T02:57:15.858Z,39.35
2022-08-14T02:59:59.598Z,40.47
2022-08-14T03:02:56.098Z,38.58
2022-08-14T03:05:52.600Z,40.08
2022-08-14T03:08:46.164Z,40.00
2022-08-14T03:11:35.152Z,40.20
2022-08-14T03:14:21.608Z,42.28
2022-08-14T03:16:57.409Z,40.42
2022-08-14T03:19:44.618Z,40.40
2022-08-14T03:22:24.584Z,39.17
2022-08-14T03:25:14.615Z,38.92
2022-08-14T03:27:57.879Z,40.03
2022-08-14T03:30:45.609Z,39.92
2022-08-14T03:33:19.809Z,40.42
2022-08-14T03:37:28.470Z,39.85
2022-08-14T03:39:14.959Z,38.88
2022-08-14T03:41:59.994Z,41.72
2022-08-14T03:45:19.617Z,39.40
2022-08-14T03:47:46.318Z,40.40
2022-08-14T03:50:42.632Z,40.17
2022-08-14T03:53:35.606Z,37.28
2022-08-14T03:56:23.629Z,37.65
2022-08-14T03:58:59.726Z,38.45
2022-08-14T04:02:01.309Z,37.28
2022-08-14T04:04:52.614Z,36.25
2022-08-14T04:07:32.887Z,37.80
2022-08-14T04:10:32.009Z,37.00
2022-08-14T04:13:23.751Z,37.20
2022-08-14T04:16:04.893Z,35.03
2022-08-14T04:19:03.624Z,35.47
2022-08-14T04:22:03.435Z,33.80
2022-08-14T04:24:40.732Z,33.83
2022-08-14T04:27:27.625Z,36.17
2022-08-14T04:30:00.734Z,33.80
2022-08-14T04:33:00.850Z,37.15
2022-08-14T04:35:56.227Z,36.38
2022-08-14T04:39:01.622Z,33.22
2022-08-14T04:41:53.372Z,34.85
2022-08-14T04:44:40.658Z,35.90
2022-08-14T04:47:39.632Z,34.75
2022-08-14T04:50:45.068Z,35.78
2022-08-14T04:53:40.990Z,33.35
2022-08-14T04:56:34.064Z,32.83
2022-08-14T04:59:18.658Z,35.50
2022-08-14T05:02:12.687Z,33.58
2022-08-14T05:04:59.664Z,34.60
2022-08-14T05:07:53.842Z,33.42
2022-08-14T05:10:48.691Z,31.70
2022-08-14T05:13:29.876Z,33.20
2022-08-14T05:16:19.671Z,34.05
2022-08-14T05:19:18.733Z,33.00
2022-08-14T05:22:16.007Z,32.78
2022-08-14T05:25:11.693Z,35.10
2022-08-14T05:28:02.680Z,31.45
2022-08-14T05:30:42.686Z,30.67
2022-08-14T05:33:41.690Z,30.50
2022-08-14T05:36:28.682Z,32.10
2022-08-14T05:39:10.663Z,31.88
2022-08-14T05:42:09.919Z,31.08
2022-08-14T05:45:17.673Z,31.65
2022-08-14T05:48:11.697Z,32.25
2022-08-14T05:51:25.666Z,30.55
2022-08-14T05:54:26.917Z,33.47
2022-08-14T05:57:00.845Z,32.55
2022-08-14T05:59:48.701Z,31.00
2022-08-14T06:02:24.769Z,31.85
2022-08-14T06:05:11.695Z,32.45
2022-08-14T06:07:45.768Z,33.67
2022-08-14T06:10:34.695Z,33.42
2022-08-14T06:13:07.867Z,31.58
2022-08-14T06:15:57.680Z,30.85
2022-08-14T06:18:32.185Z,29.95
2022-08-14T06:21:18.695Z,29.98
2022-08-14T06:23:51.838Z,31.13
2022-08-14T06:26:38.698Z,30.80
2022-08-14T06:29:13.789Z,30.95
2022-08-14T06:32:38.691Z,31.95
2022-08-14T06:35:12.694Z,29.13
2022-08-14T06:38:04.488Z,32.92
2022-08-14T06:40:42.873Z,29.20
2022-08-14T06:43:30.327Z,30.35
2022-08-14T06:46:05.950Z,30.33
2022-08-14T06:48:59.707Z,29.27
2022-08-14T06:51:44.867Z,31.40
2022-08-14T06:54:38.727Z,31.08
2022-08-14T06:57:33.713Z,30.38
2022-08-14T07:00:30.621Z,32.95
2022-08-14T07:03:30.704Z,30.63
2022-08-14T07:06:45.763Z,28.65
2022-08-14T07:09:43.633Z,29.85
2022-08-14T07:12:54.905Z,29.70
2022-08-14T07:15:42.252Z,28.63
2022-08-14T07:18:16.816Z,28.60
2022-08-14T07:21:05.724Z,29.15
2022-08-14T07:23:44.317Z,28.02
2022-08-14T07:26:31.748Z,27.60
2022-08-14T07:29:04.823Z,25.48
2022-08-14T07:31:47.020Z,25.40
2022-08-14T07:34:40.594Z,24.85
2022-08-14T07:37:20.778Z,26.23
2022-08-14T07:40:00.915Z,25.33
2022-08-14T07:42:40.737Z,24.15
2022-08-14T07:45:20.818Z,22.75
2022-08-14T07:48:04.745Z,24.05
2022-08-14T07:50:45.753Z,21.63
2022-08-14T07:53:21.723Z,21.02
2022-08-14T07:56:09.005Z,23.05
2022-08-14T07:59:01.757Z,21.55
2022-08-14T08:01:51.365Z,20.73
2022-08-14T08:04:45.773Z,22.10
2022-08-14T08:07:39.252Z,22.52
2022-08-14T08:11:01.521Z,22.25
2022-08-14T08:13:34.761Z,20.75
2022-08-14T08:16:19.772Z,21.83
2022-08-14T08:19:02.902Z,20.50
2022-08-14T08:21:53.776Z,21.33
2022-08-14T08:24:27.100Z,21.48
2022-08-14T08:27:24.760Z,21.73
2022-08-14T08:29:58.872Z,23.77
2022-08-14T08:32:49.779Z,22.38
2022-08-14T08:35:47.026Z,21.40
2022-08-14T08:39:18.702Z,18.33
2022-08-14T08:41:31.772Z,19.30
2022-08-14T08:44:32.075Z,20.90
2022-08-14T08:47:16.779Z,19.30
2022-08-14T08:50:03.837Z,22.67
2022-08-14T08:53:02.545Z,22.80
2022-08-14T08:55:52.797Z,22.20
2022-08-14T08:58:25.908Z,18.80
2022-08-14T09:01:13.816Z,20.10
2022-08-14T09:03:48.037Z,18.75
2022-08-14T09:07:00.408Z,19.38
2022-08-14T09:09:54.089Z,18.52
2022-08-14T09:12:53.794Z,21.67
2022-08-14T09:15:42.787Z,18.42
2022-08-14T09:18:16.881Z,20.42
2022-08-14T09:21:04.788Z,21.25
2022-08-14T09:24:26.677Z,21.55
2022-08-14T09:26:55.812Z,18.77
2022-08-14T09:29:29.139Z,21.70
2022-08-14T09:32:59.109Z,17.98
2022-08-14T09:35:57.903Z,19.85
2022-08-14T09:38:53.814Z,20.83
2022-08-14T09:42:21.684Z,19.65
2022-08-14T09:45:39.983Z,20.33
2022-08-14T09:48:36.816Z,20.20
2022-08-14T09:51:51.600Z,19.65
2022-08-14T09:54:57.839Z,21.20
2022-08-14T09:57:45.948Z,22.63
2022-08-14T10:00:30.167Z,21.92
2022-08-14T10:03:24.862Z,20.67
2022-08-14T10:06:29.827Z,22.10
2022-08-14T10:09:17.084Z,21.23
2022-08-14T10:12:13.291Z,19.13
2022-08-14T10:15:12.840Z,21.60
2022-08-14T10:18:18.458Z,21.92
2022-08-14T10:21:09.634Z,20.65
2022-08-14T10:23:56.848Z,22.90
2022-08-14T10:26:29.992Z,21.90
2022-08-14T10:29:23.335Z,20.00
2022-08-14T10:32:17.945Z,21.95
2022-08-14T10:35:14.954Z,26.52
2022-08-14T10:37:59.860Z,26.83
2022-08-14T10:40:59.162Z,20.90
2022-08-14T10:43:49.856Z,27.10
2022-08-14T10:47:36.395Z,22.00
2022-08-14T10:49:32.839Z,24.30
2022-08-14T10:52:07.113Z,20.52
2022-08-14T10:54:56.282Z,22.25
2022-08-14T10:57:34.584Z,22.45
2022-08-14T11:00:29.748Z,20.90
2022-08-14T11:03:35.701Z,20.73
2022-08-14T11:06:39.873Z,24.73
2022-08-14T11:09:32.171Z,20.65
2022-08-14T11:12:36.771Z,22.00
2022-08-14T11:15:13.860Z,18.55
2022-08-14T11:17:50.373Z,21.95
2022-08-14T11:20:38.908Z,21.35
2022-08-14T11:23:15.953Z,22.75
2022-08-14T11:26:07.161Z,20.52
2022-08-14T11:28:51.896Z,21.38
2022-08-14T11:31:41.899Z,19.60
2022-08-14T11:34:32.346Z,21.13
2022-08-14T11:37:35.230Z,21.83
2022-08-14T11:40:29.957Z,21.50
2022-08-14T11:43:29.544Z,22.60
2022-08-14T11:46:30.259Z,23.60
2022-08-14T11:49:21.929Z,18.15
2022-08-14T11:52:15.908Z,24.50
2022-08-14T11:55:04.883Z,22.80
2022-08-14T11:57:42.056Z,22.10
2022-08-14T12:00:31.612Z,19.40
2022-08-14T12:03:10.883Z,21.42
2022-08-14T12:06:27.963Z,23.85
2022-08-14T12:09:15.219Z,24.05
2022-08-14T12:12:02.920Z,21.00
2022-08-14T12:14:44.399Z,20.35
2022-08-14T12:17:47.592Z,22.20
2022-08-14T12:20:52.306Z,19.75
2022-08-14T12:23:46.958Z,25.40
2022-08-14T12:26:43.913Z,20.02
2022-08-14T12:29:31.886Z,21.08
2022-08-14T12:32:17.935Z,21.63
2022-08-14T12:35:11.923Z,23.33
2022-08-14T12:37:58.953Z,22.25
2022-08-14T12:40:33.056Z,20.38
2022-08-14T12:43:21.487Z,22.58
2022-08-14T12:46:02.218Z,23.17
2022-08-14T12:48:52.926Z,21.00
2022-08-14T12:51:34.937Z,20.92
2022-08-14T12:54:32.342Z,19.35
2022-08-14T12:57:22.102Z,22.50
2022-08-14T12:59:55.062Z,22.27
2022-08-14T13:02:55.231Z,22.17
2022-08-14T13:05:49.947Z,23.45
2022-08-14T13:08:36.998Z,21.40
2022-08-14T13:11:23.906Z,23.83
2022-08-14T13:14:17.356Z,23.05
2022-08-14T13:16:52.073Z,20.38
2022-08-14T13:19:46.970Z,22.25
2022-08-14T13:22:31.987Z,22.25
2022-08-14T13:25:21.952Z,21.08
2022-08-14T13:28:11.141Z,23.65
2022-08-14T13:31:10.941Z,22.55
2022-08-14T13:34:04.961Z,21.13
2022-08-14T13:36:59.019Z,21.85
2022-08-14T13:39:37.778Z,21.58
2022-08-14T13:42:30.812Z,22.60
2022-08-14T13:45:14.971Z,21.70
2022-08-14T13:48:04.973Z,22.17
2022-08-14T13:50:45.978Z,22.20
2022-08-14T13:53:34.966Z,20.80
2022-08-14T13:56:14.582Z,22.23
2022-08-14T13:59:12.967Z,20.45
2022-08-14T14:01:54.264Z,23.63
2022-08-14T14:04:57.973Z,25.23
2022-08-14T14:07:59.015Z,23.65
2022-08-14T14:10:47.986Z,24.95
2022-08-14T14:13:26.306Z,20.88
2022-08-14T14:16:08.987Z,23.40
2022-08-14T14:19:09.553Z,23.38
2022-08-14T14:22:04.002Z,23.23
2022-08-14T14:24:56.000Z,24.52
2022-08-14T14:27:41.564Z,21.38
2022-08-14T14:30:53.362Z,22.63
2022-08-14T14:33:45.313Z,22.48
2022-08-14T14:36:32.994Z,22.83
2022-08-14T14:39:10.292Z,22.70
2022-08-14T14:41:59.005Z,22.40
2022-08-14T14:44:35.177Z,20.63
2022-08-14T14:47:23.009Z,22.98
2022-08-14T14:50:07.008Z,23.00
2022-08-14T14:53:12.455Z,23.42
2022-08-14T14:56:47.245Z,21.52
2022-08-14T14:58:55.001Z,23.02
2022-08-14T15:01:35.024Z,22.13
2022-08-14T15:04:37.118Z,23.00
2022-08-14T15:07:24.014Z,25.02
2022-08-14T15:09:57.101Z,21.08
2022-08-14T15:12:56.343Z,21.70
2022-08-14T15:15:32.731Z,24.05
2022-08-14T15:18:38.404Z,23.20
2022-08-14T15:21:14.163Z,22.85
2022-08-14T15:24:02.018Z,25.15
2022-08-14T15:26:38.172Z,24.85
2022-08-14T15:29:26.018Z,23.42
2022-08-14T15:32:08.675Z,24.98
2022-08-14T15:35:03.043Z,26.27
2022-08-14T15:37:56.282Z,25.88
2022-08-14T15:40:30.999Z,21.77
2022-08-14T15:43:18.032Z,25.52
2022-08-14T15:45:52.141Z,25.50
2022-08-14T15:48:43.911Z,24.80
2022-08-14T15:51:28.241Z,25.15
2022-08-14T15:54:25.049Z,24.13
2022-08-14T15:57:17.057Z,25.27
2022-08-14T16:00:21.516Z,28.35
2022-08-14T16:03:37.250Z,25.05
2022-08-14T16:06:37.071Z,25.05
2022-08-14T16:09:11.428Z,24.75
2022-08-14T16:12:00.059Z,25.50
2022-08-14T16:14:34.392Z,23.05
2022-08-14T16:17:21.045Z,24.48
2022-08-14T16:19:55.195Z,22.10
2022-08-14T16:22:57.705Z,26.30
2022-08-14T16:25:41.072Z,24.73
2022-08-14T16:28:29.066Z,24.30
2022-08-14T16:31:10.022Z,24.92
2022-08-14T16:34:44.557Z,22.33
2022-08-14T16:37:19.075Z,22.80
2022-08-14T16:40:07.163Z,24.83
2022-08-14T16:43:04.491Z,22.25
2022-08-14T16:45:59.067Z,24.30
2022-08-14T16:48:58.141Z,21.80
2022-08-14T16:51:52.567Z,21.98
2022-08-14T16:54:35.354Z,22.65
2022-08-14T16:57:33.093Z,24.50
2022-08-14T17:00:28.034Z,22.75
2022-08-14T17:03:24.073Z,24.67
2022-08-14T17:06:30.698Z,23.40
2022-08-14T17:09:34.072Z,21.83
2022-08-14T17:12:28.477Z,24.48
2022-08-14T17:15:26.088Z,27.38
2022-08-14T17:18:15.074Z,25.42
2022-08-14T17:21:02.845Z,23.85
2022-08-14T17:23:54.105Z,24.02
2022-08-14T17:26:55.196Z,23.45
2022-08-14T17:29:44.980Z,25.77
2022-08-14T17:32:55.700Z,25.25
2022-08-14T17:35:58.634Z,26.25
2022-08-14T17:38:40.186Z,26.42
2022-08-14T17:41:37.504Z,26.17
2022-08-14T17:44:46.209Z,24.83
2022-08-14T17:47:20.665Z,26.73
2022-08-14T17:50:59.692Z,27.20
2022-08-14T17:53:10.128Z,25.70
2022-08-14T17:56:04.211Z,25.10
2022-08-14T17:58:51.115Z,25.88
2022-08-14T18:01:25.720Z,25.85
2022-08-14T18:04:28.963Z,28.15
2022-08-14T18:07:59.425Z,26.92
2022-08-14T18:10:52.660Z,25.38
2022-08-14T18:13:51.572Z,26.73
2022-08-14T18:16:31.155Z,31.20
2022-08-14T18:19:17.116Z,28.38
2022-08-14T18:21:57.502Z,28.17
2022-08-14T18:24:46.168Z,30.90
2022-08-14T18:27:23.452Z,30.73
2022-08-14T18:30:33.251Z,32.20
2022-08-14T18:33:27.132Z,31.55
2022-08-14T18:37:13.911Z,31.30
2022-08-14T18:40:23.178Z,33.60
2022-08-14T18:43:16.164Z,33.63
2022-08-14T18:46:59.460Z,32.28
2022-08-14T18:49:23.708Z,33.95
2022-08-14T18:52:19.242Z,34.72
2022-08-14T18:55:07.182Z,36.13
2022-08-14T18:58:31.386Z,38.15
2022-08-14T19:01:13.239Z,35.70
2022-08-14T19:03:47.306Z,37.83
2022-08-14T19:06:56.148Z,37.05
2022-08-14T19:10:16.745Z,38.22
2022-08-14T19:13:13.216Z,41.17
2022-08-14T19:16:26.298Z,42.60
2022-08-14T19:19:13.175Z,42.47
2022-08-14T19:22:12.634Z,46.00
2022-08-14T19:25:06.169Z,42.25
2022-08-14T19:28:39.206Z,42.47
2022-08-14T19:31:42.122Z,40.58
2022-08-14T19:34:52.866Z,42.03
2022-08-14T19:38:04.170Z,42.42
2022-08-14T19:41:01.622Z,39.83
2022-08-14T19:43:55.600Z,38.75
2022-08-14T19:46:38.867Z,42.28
2022-08-14T19:50:24.398Z,38.63
2022-08-14T19:52:50.208Z,42.53
2022-08-14T19:55:45.457Z,38.38
2022-08-14T19:58:57.748Z,37.15
2022-08-14T20:01:46.242Z,36.40
2022-08-14T20:04:47.357Z,36.70
2022-08-14T20:07:59.711Z,35.45
2022-08-14T20:11:11.522Z,38.47
2022-08-14T20:14:20.643Z,35.30
2022-08-14T20:17:22.193Z,36.35
2022-08-14T20:19:55.296Z,37.15
2022-08-14T20:22:45.203Z,34.90
2022-08-14T20:25:23.385Z,34.97
2022-08-14T20:28:28.772Z,35.55
2022-08-14T20:31:36.557Z,36.00
2022-08-14T20:34:36.225Z,38.88
2022-08-14T20:37:24.200Z,36.45
2022-08-14T20:39:57.418Z,35.35
2022-08-14T20:43:02.209Z,37.97
2022-08-14T20:45:37.309Z,35.22
2022-08-14T20:48:50.939Z,35.80
2022-08-14T20:51:37.558Z,36.33
2022-08-14T20:54:34.460Z,37.90
2022-08-14T20:57:18.833Z,37.22
2022-08-14T21:00:05.232Z,36.47
2022-08-14T21:02:50.103Z,38.15
2022-08-14T21:05:46.539Z,35.53
2022-08-14T21:08:44.239Z,34.85
2022-08-14T21:11:30.311Z,37.63
2022-08-14T21:14:21.054Z,36.97
2022-08-14T21:17:04.197Z,35.22
2022-08-14T21:19:52.226Z,34.10
2022-08-14T21:22:26.944Z,35.10
2022-08-14T21:25:13.245Z,32.25
2022-08-14T21:27:57.484Z,34.55
2022-08-14T21:30:52.164Z,34.00
2022-08-14T21:33:34.249Z,35.30
2022-08-14T21:36:22.352Z,36.15
2022-08-14T21:39:02.242Z,34.20
2022-08-14T21:41:50.147Z,31.85
2022-08-14T21:44:42.937Z,35.47
2022-08-14T21:47:31.247Z,32.40
2022-08-14T21:50:56.483Z,33.20
2022-08-14T21:53:14.253Z,34.15
2022-08-14T21:55:49.582Z,32.92
2022-08-14T21:58:54.311Z,31.42
2022-08-14T22:01:29.419Z,31.30
2022-08-14T22:04:49.269Z,31.35
2022-08-14T22:07:36.256Z,32.95
2022-08-14T22:10:25.612Z,32.38
2022-08-14T22:13:19.263Z,34.00
2022-08-14T22:16:07.286Z,36.92
2022-08-14T22:19:00.346Z,31.85
2022-08-14T22:21:51.007Z,34.70
2022-08-14T22:24:38.293Z,33.63
2022-08-14T22:27:55.322Z,32.22
2022-08-14T22:30:43.292Z,34.42
2022-08-14T22:33:23.274Z,33.67
2022-08-14T22:36:42.344Z,33.92
2022-08-14T22:40:46.093Z,35.95
2022-08-14T22:42:59.890Z,32.45
2022-08-14T22:45:41.277Z,33.10
2022-08-14T22:48:49.404Z,34.10
2022-08-14T22:51:48.638Z,34.65
2022-08-14T22:54:52.772Z,32.95
2022-08-14T22:57:37.370Z,34.78
2022-08-14T23:00:30.456Z,33.22
2022-08-14T23:03:07.902Z,34.15
2022-08-14T23:06:04.321Z,33.65
2022-08-14T23:09:34.522Z,32.80
2022-08-14T23:11:58.316Z,35.58
2022-08-14T23:14:43.316Z,32.50
2022-08-14T23:17:17.502Z,34.22
2022-08-14T23:20:05.289Z,31.80
2022-08-14T23:22:48.467Z,32.97
2022-08-14T23:26:00.013Z,31.88
2022-08-14T23:28:58.279Z,34.38
2022-08-14T23:31:36.072Z,33.00
2022-08-14T23:34:29.616Z,34.97
2022-08-14T23:37:04.714Z,33.78
2022-08-14T23:39:51.325Z,33.55
2022-08-14T23:42:39.802Z,34.25
2022-08-14T23:45:36.377Z,33.75
2022-08-14T23:48:12.644Z,32.70
2022-08-14T23:51:00.157Z,34.20
2022-08-14T23:53:48.799Z,33.70
2022-08-14T23:56:39.330Z,34.88
2022-08-14T23:59:16.448Z,35.50
